Time;durP1;ratioP1;P1;durP2;ratioP2;P2;SDS_P1;SDS_P2;PMS_P1;PMS_P2;Temp;Humidity;BMP_temperature;BMP_pressure;BME280_temperature;BME280_humidity;BME280_pressure;Samples;Min_cycle;Max_cycle;Signal;HPM_P1;HPM_P2
2023/08/06 07:01:21;;;;;;;1.20;1.20;;;16.80;99.90;19.80;100512.00;;;;6254563;22;1511305;-73
2023/08/06 07:03:47;;;;;;;2.00;1.90;;;16.90;99.90;19.70;100528.00;;;;6256392;22;20258;-72
2023/08/06 07:06:15;;;;;;;1.10;1.10;;;16.80;99.90;19.20;100534.00;;;;6282121;22;20146;-72
2023/08/06 07:08:41;;;;;;;1.30;1.30;;;16.70;99.90;19.80;100526.00;;;;6256306;22;20247;-72
2023/08/06 07:11:10;;;;;;;1.40;1.33;;;16.70;99.90;19.50;100538.00;;;;6282055;22;20577;-72
2023/08/06 07:13:36;;;;;;;1.10;1.10;;;16.80;99.90;19.60;100534.00;;;;6282329;22;20196;-72
2023/08/06 07:16:03;;;;;;;1.00;1.00;;;16.70;99.90;20.10;100547.00;;;;6282195;22;20253;-72
2023/08/06 07:18:34;;;;;;;2.10;1.43;;;16.80;99.90;20.00;100550.00;;;;6309430;22;20167;-72
2023/08/06 07:21:00;;;;;;;0.93;0.93;;;16.90;99.90;20.30;100559.00;;;;6256427;22;20167;-72
2023/08/06 07:23:29;;;;;;;0.90;0.90;;;17.10;99.90;19.80;100544.00;;;;6309225;22;20585;-72
2023/08/06 07:25:58;;;;;;;0.90;0.90;;;16.90;99.90;19.90;100546.00;;;;6256412;22;20166;-72
2023/08/06 07:28:24;;;;;;;1.17;1.07;;;17.00;99.90;19.50;100555.00;;;;6309383;22;20175;-72
2023/08/06 07:30:54;;;;;;;1.00;1.00;;;16.90;99.90;19.70;100556.00;;;;6281734;22;20190;-72
2023/08/06 07:33:20;;;;;;;1.00;1.00;;;16.90;99.90;20.40;100567.00;;;;6282250;22;20152;-72
2023/08/06 07:35:50;;;;;;;1.00;1.00;;;17.00;99.90;20.40;100571.00;;;;6309391;22;20230;-72
2023/08/06 07:38:17;;;;;;;1.10;1.10;;;17.20;99.90;19.80;100557.00;;;;6308562;22;20133;-72
2023/08/06 07:40:43;;;;;;;13.43;1.57;;;17.00;99.90;19.60;100567.00;;;;6309040;22;20149;-72
2023/08/06 07:43:18;;;;;;;1.40;1.40;;;16.80;99.90;19.80;100568.00;;;;6308677;22;20599;-71
2023/08/06 07:45:44;;;;;;;1.40;1.40;;;16.70;99.90;20.00;100567.00;;;;6281289;22;20475;-71
2023/08/06 07:48:10;;;;;;;1.60;1.60;;;16.80;99.90;19.60;100577.00;;;;6308973;22;20140;-71
2023/08/06 07:50:39;;;;;;;1.87;1.87;;;16.60;99.90;19.50;100537.00;;;;6281532;22;20510;-71
2023/08/06 07:53:05;;;;;;;1.67;1.67;;;16.60;99.90;19.60;100571.00;;;;6308719;22;20147;-71
2023/08/06 07:55:31;;;;;;;2.00;2.00;;;16.50;99.90;20.00;100570.00;;;;6281438;22;20473;-71
2023/08/06 07:57:58;;;;;;;1.60;1.60;;;16.70;99.90;19.70;100573.00;;;;6308971;22;20138;-71
2023/08/06 08:00:23;;;;;;;1.60;1.60;;;16.60;99.90;19.20;100572.00;;;;6267924;22;20169;-71
2023/08/06 08:02:50;;;;;;;1.70;1.70;;;16.50;99.90;19.30;100557.00;;;;6277631;22;20592;-71
2023/08/06 08:05:16;;;;;;;1.60;1.60;;;16.40;99.90;19.20;100564.00;;;;6250329;22;20151;-71
2023/08/06 08:07:42;;;;;;;1.47;1.47;;;16.40;99.90;19.20;100545.00;;;;6250946;22;20145;-72
2023/08/06 08:10:08;;;;;;;1.90;1.80;;;16.40;99.90;18.50;100571.00;;;;6250846;22;20588;-72
2023/08/06 08:12:40;;;;;;;1.53;1.53;;;16.10;99.90;18.20;100569.00;;;;6250840;22;20167;-72
2023/08/06 08:15:07;;;;;;;1.87;1.87;;;16.00;99.90;18.50;100566.00;;;;6251337;22;20146;-71
2023/08/06 08:17:37;;;;;;;1.90;1.80;;;16.00;99.90;18.70;100572.00;;;;6251264;22;20153;-71
2023/08/06 08:20:10;;;;;;;1.87;1.87;;;16.10;99.90;19.10;100577.00;;;;6225842;22;20488;-72
2023/08/06 08:22:36;;;;;;;2.30;2.20;;;16.20;99.90;19.20;100575.00;;;;6250121;22;20172;-71
2023/08/06 08:25:02;;;;;;;3.17;3.07;;;16.20;99.90;19.20;100576.00;;;;6277407;22;20144;-71
2023/08/06 08:27:31;;;;;;;3.13;2.93;;;16.30;99.90;18.80;100581.00;;;;6224896;22;20157;-71
2023/08/06 08:29:58;;;;;;;2.80;2.67;;;16.20;99.90;18.80;100581.00;;;;6277262;22;20298;-70
2023/08/06 08:32:26;;;;;;;2.87;2.77;;;16.20;99.90;19.10;100589.00;;;;6250826;22;20204;-71
2023/08/06 08:34:52;;;;;;;3.57;3.47;;;16.20;99.90;18.70;100589.00;;;;6225637;22;20541;-71
2023/08/06 08:37:19;;;;;;;2.80;2.70;;;16.10;99.90;19.20;100595.00;;;;6250243;22;20144;-72
2023/08/06 08:39:48;;;;;;;2.00;2.00;;;16.20;99.90;18.40;100606.00;;;;6225134;22;20578;-71
2023/08/06 08:42:14;;;;;;;4.10;2.20;;;16.00;99.90;18.90;100556.00;;;;6277288;22;20165;-72
2023/08/06 08:44:45;;;;;;;2.00;2.00;;;16.10;99.90;19.20;100605.00;;;;6250549;22;20286;-71
2023/08/06 08:47:12;;;;;;;1.70;1.70;;;16.20;99.90;19.10;100592.00;;;;6225342;22;20646;-72
2023/08/06 08:49:43;;;;;;;3.40;3.30;;;16.20;99.90;18.60;100595.00;;;;6249867;22;20223;-71
2023/08/06 08:52:12;;;;;;;2.30;2.20;;;16.20;99.90;19.30;100586.00;;;;6250454;22;20149;-71
2023/08/06 08:54:39;;;;;;;12.23;3.00;;;16.30;99.90;18.30;100603.00;;;;6250960;22;20148;-72
2023/08/06 08:57:08;;;;;;;1.93;1.83;;;16.00;99.90;18.30;100591.00;;;;6224624;22;20160;-71
2023/08/06 08:59:34;;;;;;;1.80;1.80;;;16.00;99.90;18.40;100600.00;;;;6252086;22;20160;-72
2023/08/06 09:02:10;;;;;;;2.97;2.33;;;15.90;99.90;18.40;100593.00;;;;6280556;22;20178;-72
2023/08/06 09:04:43;;;;;;;1.70;1.70;;;16.00;99.90;18.70;100605.00;;;;6280570;22;20576;-72
2023/08/06 09:07:16;;;;;;;2.75;2.58;;;16.20;99.90;18.50;100603.00;;;;6254454;22;20393;-72
2023/08/06 09:09:52;;;;;;;3.07;1.80;;;16.20;99.90;19.10;100594.00;;;;6281630;22;20137;-72
2023/08/06 09:12:22;;;;;;;1.70;1.70;;;16.30;99.90;19.10;100595.00;;;;6255058;22;20158;-72
2023/08/06 09:14:52;;;;;;;2.37;2.37;;;16.40;99.90;19.60;100594.00;;;;6280706;22;20148;-72
2023/08/06 09:17:31;;;;;;;2.90;2.80;;;16.60;99.90;19.50;100603.00;;;;6306917;22;20693;-71
2023/08/06 09:20:13;;;;;;;3.50;3.40;;;16.60;99.90;19.10;100621.00;;;;6307990;22;20174;-71
2023/08/06 09:22:44;;;;;;;3.50;3.40;;;16.50;99.90;19.20;100624.00;;;;6280986;22;20224;-71
2023/08/06 09:25:25;;;;;;;9.43;6.00;;;16.40;99.90;19.70;100624.00;;;;6280724;22;20159;-71
2023/08/06 09:27:53;;;;;;;4.00;3.90;;;16.60;99.90;19.80;100619.00;;;;6254920;22;20170;-72
2023/08/06 09:30:35;;;;;;;3.50;3.40;;;16.60;99.90;19.40;100607.00;;;;6254604;22;20170;-72
2023/08/06 09:33:10;;;;;;;3.40;3.23;;;16.50;99.90;19.50;100578.00;;;;6280495;22;20154;-70
2023/08/06 09:35:39;;;;;;;2.30;2.30;;;16.60;99.90;18.90;100638.00;;;;6281043;22;20136;-71
2023/08/06 09:38:10;;;;;;;2.60;2.50;;;16.50;99.90;19.30;100620.00;;;;6307501;22;20578;-71
2023/08/06 09:40:39;;;;;;;3.70;3.60;;;16.40;99.90;19.30;100626.00;;;;6280624;22;20442;-71
2023/08/06 09:43:25;;;;;;;5.03;4.63;;;16.40;99.90;18.80;100639.00;;;;6307400;22;20162;-71
2023/08/06 09:46:10;;;;;;;3.70;3.60;;;16.30;99.90;18.70;100643.00;;;;6232354;22;20187;-71
2023/08/06 09:49:03;;;;;;;3.40;3.30;;;16.20;99.90;18.90;100638.00;;;;6279763;22;20143;-71
2023/08/06 09:51:55;;;;;;;4.13;4.03;;;16.20;99.90;18.90;100643.00;;;;6272987;22;20166;-71
2023/08/06 09:54:43;;;;;;;3.10;3.00;;;16.30;99.90;19.00;100673.00;;;;6280988;22;20174;-71
2023/08/06 09:57:25;;;;;;;3.20;3.10;;;16.20;99.90;19.50;100668.00;;;;6307778;22;20210;-71
2023/08/06 09:59:58;;;;;;;3.67;3.53;;;16.40;99.90;19.30;100671.00;;;;6254664;22;20170;-71
2023/08/06 10:02:32;;;;;;;4.00;3.90;;;16.50;99.90;19.70;100675.00;;;;6253629;22;20187;-71
2023/08/06 10:05:05;;;;;;;4.10;3.90;;;16.60;99.90;18.90;100683.00;;;;6280547;22;20149;-71
2023/08/06 10:07:46;;;;;;;3.70;3.60;;;16.60;99.90;19.30;100657.00;;;;6280380;22;20144;-71
2023/08/06 10:10:34;;;;;;;3.30;3.20;;;16.50;99.90;19.30;100658.00;;;;6280693;22;20149;-72
2023/08/06 10:13:25;;;;;;;3.07;2.97;;;16.50;99.90;19.80;100704.00;;;;6203922;22;20538;-72
2023/08/06 10:16:12;;;;;;;3.47;3.37;;;16.70;99.90;19.40;100705.00;;;;6255537;22;20657;-71
2023/08/06 10:19:05;;;;;;;3.33;3.23;;;16.70;99.90;19.30;100709.00;;;;6279266;22;20167;-72
2023/08/06 10:33:48;;;;;;;1.13;1.13;;;15.10;99.90;17.90;100763.00;;;;5070402;28;20570;-70
2023/08/06 10:36:20;;;;;;;20.23;3.30;;;15.40;99.90;18.60;100759.00;;;;5049073;28;20221;-70
2023/08/06 10:39:00;;;;;;;2.60;2.50;;;15.80;99.90;18.80;100732.00;;;;5032514;28;20195;-71
2023/08/06 10:41:29;;;;;;;2.87;2.77;;;16.10;99.90;19.20;100732.00;;;;5048936;28;20700;-71
2023/08/06 10:44:10;;;;;;;3.10;2.90;;;16.30;99.90;18.80;100738.00;;;;5032370;28;20610;-70
2023/08/06 10:46:49;;;;;;;3.40;3.30;;;16.30;99.90;19.60;100694.00;;;;5032245;28;20188;-70
2023/08/06 10:49:18;;;;;;;3.20;3.10;;;16.50;99.90;19.80;100724.00;;;;5048645;28;20234;-70
2023/08/06 10:52:10;;;;;;;3.30;3.20;;;16.80;99.90;19.50;100727.00;;;;5048739;28;20684;-70
2023/08/06 10:54:59;;;;;;;3.00;2.90;;;16.80;99.90;18.90;100731.00;;;;5048402;28;20198;-71
2023/08/06 10:57:50;;;;;;;4.17;3.90;;;16.50;99.90;19.10;100737.00;;;;5029313;28;20181;-70
2023/08/06 11:00:39;;;;;;;5.43;5.33;;;16.50;99.90;18.90;100744.00;;;;5039589;28;20210;-70
2023/08/06 11:03:08;;;;;;;5.37;5.27;;;16.20;99.90;18.60;100722.00;;;;5048042;28;20221;-70
2023/08/06 11:05:49;;;;;;;4.40;4.30;;;16.10;99.90;18.60;100720.00;;;;5048746;28;20236;-70
2023/08/06 11:08:38;;;;;;;5.67;5.47;;;16.00;99.90;18.50;100760.00;;;;5048591;28;20180;-70
2023/08/06 11:11:38;;;;;;;4.13;4.03;;;15.90;99.90;18.80;100763.00;;;;5048183;28;20654;-70
2023/08/06 11:14:18;;;;;;;4.07;3.97;;;15.90;99.90;18.60;100720.00;;;;5048291;28;20638;-70
2023/08/06 11:17:07;;;;;;;4.00;3.90;;;15.90;99.90;18.60;100752.00;;;;5049807;28;20186;-70
2023/08/06 11:19:36;;;;;;;3.60;3.30;;;15.90;99.90;18.60;100756.00;;;;5029392;28;20550;-70
2023/08/06 11:22:14;;;;;;;3.00;2.90;;;15.90;99.90;18.60;100753.00;;;;5063239;28;20255;-70
2023/08/06 11:24:49;;;;;;;3.70;3.50;;;15.90;99.90;18.10;100760.00;;;;5031857;28;20195;-70
2023/08/06 11:27:41;;;;;;;2.70;2.60;;;15.80;99.90;18.70;100719.00;;;;5046857;28;20262;-70
2023/08/06 11:30:28;;;;;;;2.80;2.70;;;15.90;99.90;18.50;100719.00;;;;5042467;28;20286;-70
2023/08/06 11:33:14;;;;;;;3.13;3.03;;;16.00;99.90;18.80;100746.00;;;;5047913;28;20213;-70
2023/08/06 11:36:01;;;;;;;4.23;3.30;;;16.10;99.90;18.70;100752.00;;;;5024033;28;20188;-70
2023/08/06 11:38:30;;;;;;;4.17;4.07;;;16.20;99.90;19.10;100707.00;;;;5045157;28;20663;-70
2023/08/06 11:41:02;;;;;;;4.43;4.23;;;16.30;99.90;19.40;100752.00;;;;5033261;28;20185;-70
2023/08/06 11:44:01;;;;;;;3.80;3.70;;;16.40;99.90;18.60;100747.00;;;;5021561;28;20273;-70
2023/08/06 11:46:55;;;;;;;4.10;3.80;;;16.20;99.90;18.90;100733.00;;;;5030048;28;20224;-71
2023/08/06 11:49:49;;;;;;;4.90;4.73;;;16.20;99.90;18.70;100741.00;;;;5034202;28;20191;-70
2023/08/06 11:52:39;;;;;;;4.40;4.30;;;16.20;99.90;19.10;100745.00;;;;5062024;28;20209;-70
2023/08/06 11:55:26;;;;;;;4.30;4.00;;;16.40;99.90;17.80;100731.00;;;;5024082;28;20189;-70
2023/08/06 11:57:58;;;;;;;4.10;4.00;;;16.10;99.90;18.40;100754.00;;;;5020831;28;20258;-70
2023/08/06 12:00:44;;;;;;;4.80;4.70;;;16.00;99.90;18.80;100767.00;;;;5034631;28;20185;-70
2023/08/06 12:03:31;;;;;;;5.20;5.10;;;16.10;99.90;18.60;100746.00;;;;5007213;28;20568;-70
2023/08/06 12:06:03;;;;;;;4.80;4.60;;;16.10;99.90;18.70;100750.00;;;;5033625;28;20692;-70
2023/08/06 12:08:35;;;;;;;5.43;5.20;;;16.10;99.90;18.80;100747.00;;;;5033584;28;20189;-70
2023/08/06 12:11:07;;;;;;;6.00;4.70;;;16.30;99.90;19.20;100753.00;;;;5022585;28;20193;-70
2023/08/06 12:13:36;;;;;;;4.93;4.83;;;16.30;99.90;19.00;100756.00;;;;5033065;28;20525;-70
2023/08/06 12:16:18;;;;;;;5.43;5.23;;;16.30;99.90;18.60;100769.00;;;;5033212;28;20652;-70
2023/08/06 12:19:04;;;;;;;6.00;5.80;;;16.30;99.90;19.10;100786.00;;;;5033394;28;20189;-71
2023/08/06 12:21:53;;;;;;;6.70;6.40;;;16.30;99.90;18.70;100787.00;;;;5033624;28;20188;-70
2023/08/06 12:24:24;;;;;;;8.17;7.47;;;16.20;99.90;18.40;100788.00;;;;5066889;28;20189;-70
2023/08/06 12:27:11;;;;;;;7.90;7.60;;;16.10;99.90;18.60;100760.00;;;;5034115;28;20300;-70
2023/08/06 12:29:52;;;;;;;7.73;7.53;;;16.10;99.90;18.70;100803.00;;;;5066701;28;20212;-70
2023/08/06 12:32:34;;;;;;;8.30;8.00;;;16.00;99.90;18.20;100797.00;;;;5032420;28;20790;-69
2023/08/06 12:35:09;;;;;;;7.43;7.13;;;16.00;99.90;18.30;100770.00;;;;5007228;28;20183;-69
2023/08/06 12:37:58;;;;;;;7.97;7.67;;;15.80;99.90;18.70;100810.00;;;;5012966;28;20544;-70
2023/08/06 12:40:26;;;;;;;7.43;7.20;;;15.90;99.90;18.80;100813.00;;;;5066066;28;20219;-68
2023/08/06 12:42:56;;;;;;;7.40;7.10;;;16.20;99.90;19.10;100821.00;;;;5033028;28;20194;-69
2023/08/06 12:45:45;;;;;;;9.17;8.87;;;16.30;99.90;19.30;100819.00;;;;5033333;28;20190;-68
2023/08/06 12:48:37;;;;;;;9.27;8.50;;;16.50;99.90;18.70;100832.00;;;;5024424;28;20186;-71
2023/08/06 12:51:14;;;;;;;9.30;8.90;;;16.30;99.90;18.60;100833.00;;;;5031152;28;20544;-71
2023/08/06 12:53:49;;;;;;;7.30;7.10;;;16.10;99.90;18.40;100823.00;;;;5016785;28;20565;-71
2023/08/06 12:56:32;;;;;;;6.67;6.47;;;16.00;99.90;18.60;100806.00;;;;5031864;28;20210;-71
2023/08/06 12:59:24;;;;;;;7.20;7.00;;;16.00;99.90;18.30;100853.00;;;;5030280;28;20276;-72
2023/08/06 13:02:30;;;;;;;6.13;5.93;;;15.90;99.90;18.20;100851.00;;;;5033778;28;20288;-71
2023/08/06 13:05:21;;;;;;;4.20;4.10;;;15.70;99.90;18.50;100871.00;;;;5032734;28;20195;-71
2023/08/06 13:07:48;;;;;;;3.63;3.53;;;15.70;99.90;18.00;100860.00;;;;5031687;28;20198;-68
2023/08/06 13:10:43;;;;;;;3.77;3.67;;;15.70;99.90;18.00;100839.00;;;;5032332;28;20196;-68
2023/08/06 13:13:18;;;;;;;3.43;3.33;;;15.50;99.90;17.90;100861.00;;;;5030693;28;20210;-69
2023/08/06 13:16:19;;;;;;;6.87;5.20;;;15.40;99.90;17.70;100887.00;;;;5032828;28;20190;-70
2023/08/06 13:19:09;;;;;;;2.40;2.40;;;15.40;99.90;17.90;100895.00;;;;5032793;28;20263;-70
2023/08/06 13:21:43;;;;;;;2.60;2.50;;;15.40;99.90;17.90;100899.00;;;;5017258;28;20200;-71
2023/08/06 13:24:50;;;;;;;2.57;2.50;;;15.30;99.90;18.00;100908.00;;;;5033895;28;20218;-70
2023/08/06 13:27:18;;;;;;;3.83;3.60;;;15.40;99.90;17.80;100908.00;;;;5031157;28;20291;-71
2023/08/06 13:29:56;;;;;;;5.27;4.97;;;15.30;99.90;18.00;100901.00;;;;5032713;28;20210;-71
2023/08/06 13:32:22;;;;;;;2.20;2.20;;;15.30;99.90;18.20;100911.00;;;;5031713;28;20627;-72
2023/08/06 13:35:12;;;;;;;2.27;2.27;;;15.40;99.90;18.00;100925.00;;;;5033471;28;20208;-72
2023/08/06 13:37:58;;;;;;;2.40;2.30;;;15.40;99.90;18.00;100927.00;;;;4991566;28;20289;-71
2023/08/06 13:40:36;;;;;;;2.33;2.27;;;15.30;99.90;18.40;100923.00;;;;5031652;28;20187;-70
2023/08/06 13:43:07;;;;;;;1.80;1.80;;;15.50;99.90;18.50;100920.00;;;;5025146;28;20215;-71
2023/08/06 13:45:37;;;;;;;1.57;1.57;;;15.60;99.90;18.10;100931.00;;;;5015865;28;20239;-71
2023/08/06 13:48:24;;;;;;;1.30;1.30;;;15.50;99.90;18.40;100935.00;;;;5030668;28;20205;-71
2023/08/06 13:51:11;;;;;;;1.57;1.57;;;15.60;99.90;18.30;100946.00;;;;5033465;28;20192;-71
2023/08/06 13:53:57;;;;;;;1.50;1.50;;;15.50;99.90;18.20;100946.00;;;;5022080;28;20188;-70
2023/08/06 13:56:33;;;;;;;2.50;2.40;;;15.60;99.90;18.20;100918.00;;;;5030862;28;20197;-70
2023/08/06 13:59:19;;;;;;;1.90;1.90;;;15.50;99.90;18.50;100913.00;;;;5031943;28;20479;-71
2023/08/06 14:01:53;;;;;;;5.13;2.37;;;15.70;99.90;17.90;100951.00;;;;5023632;28;20282;-70
2023/08/06 14:04:42;;;;;;;2.00;2.00;;;15.60;99.90;17.90;100960.00;;;;5032000;28;20190;-70
2023/08/06 14:07:16;;;;;;;2.37;2.30;;;15.40;99.90;17.70;100903.00;;;;5032145;28;20535;-71
2023/08/06 14:09:54;;;;;;;3.00;2.80;;;15.30;99.90;17.70;100958.00;;;;5031279;28;20267;-71
2023/08/06 14:12:31;;;;;;;1.70;1.70;;;15.20;99.90;17.70;100966.00;;;;5032693;28;20295;-71
2023/08/06 14:15:10;;;;;;;1.30;1.30;;;15.20;99.90;18.00;100959.00;;;;5033085;28;20563;-71
2023/08/06 14:17:39;;;;;;;1.40;1.40;;;15.20;99.90;18.10;100970.00;;;;5032348;28;20219;-71
2023/08/06 14:20:26;;;;;;;1.10;1.10;;;15.30;99.90;18.00;100966.00;;;;5031835;28;20183;-70
2023/08/06 14:22:59;;;;;;;1.10;1.10;;;15.40;99.90;18.00;100972.00;;;;5025657;28;20196;-70
2023/08/06 14:25:37;;;;;;;1.53;1.53;;;15.50;99.90;18.60;100984.00;;;;5019856;28;20179;-70
2023/08/06 14:28:06;;;;;;;1.40;1.40;;;15.60;99.90;18.40;100963.00;;;;5015865;28;20514;-70
2023/08/06 14:30:52;;;;;;;1.40;1.40;;;15.70;99.90;18.20;100943.00;;;;5031759;28;20185;-71
2023/08/06 14:33:49;;;;;;;1.40;1.40;;;15.60;99.90;17.90;100990.00;;;;5032455;28;20685;-70
2023/08/06 14:36:19;;;;;;;1.33;1.33;;;15.60;99.90;18.10;100986.00;;;;5025895;28;20188;-70
2023/08/06 14:38:50;;;;;;;1.33;1.33;;;15.60;99.90;18.40;100981.00;;;;5062666;28;20189;-70
2023/08/06 14:41:39;;;;;;;1.50;1.50;;;15.70;99.90;18.80;101003.00;;;;5031645;28;20186;-70
2023/08/06 14:44:14;;;;;;;1.47;1.47;;;15.80;99.90;18.30;101007.00;;;;5017658;28;20186;-70
2023/08/06 14:47:04;;;;;;;2.03;1.93;;;15.80;99.90;18.30;101012.00;;;;5031418;28;20661;-69
2023/08/06 14:49:50;;;;;;;1.63;1.50;;;15.70;99.90;18.80;101019.00;;;;5048025;28;20269;-69
2023/08/06 14:52:45;;;;;;;2.27;2.07;;;15.90;99.90;18.90;101022.00;;;;5032380;28;20239;-70
2023/08/06 14:55:34;;;;;;;1.57;1.57;;;16.00;99.90;19.30;101020.00;;;;5015317;28;20281;-70
2023/08/06 14:58:29;;;;;;;2.33;2.30;;;16.10;99.90;18.90;101021.00;;;;5031500;28;20639;-69
2023/08/06 15:00:59;;;;;;;2.17;2.17;;;16.10;99.90;18.50;101019.00;;;;5029095;28;20641;-70
2023/08/06 15:03:48;;;;;;;2.83;2.73;;;16.00;99.90;18.90;101029.00;;;;5041692;28;20746;-69
2023/08/06 15:06:17;;;;;;;2.90;2.80;;;16.00;99.90;18.90;101023.00;;;;5031221;28;20193;-69
2023/08/06 15:08:49;;;;;;;2.90;2.80;;;16.10;99.90;18.90;101029.00;;;;5032264;28;20200;-70
2023/08/06 15:11:25;;;;;;;3.87;3.50;;;16.00;99.90;18.70;101023.00;;;;5031276;28;20185;-70
2023/08/06 15:14:07;;;;;;;3.20;3.10;;;16.00;99.90;19.20;101034.00;;;;5031068;28;20218;-69
2023/08/06 15:16:55;;;;;;;3.30;3.20;;;16.10;99.90;18.80;101037.00;;;;5011562;28;20194;-69
2023/08/06 15:19:38;;;;;;;3.87;3.70;;;16.10;99.90;18.90;101027.00;;;;5013979;28;20196;-69
2023/08/06 15:22:25;;;;;;;3.57;3.47;;;16.10;99.90;19.10;101054.00;;;;5035150;28;20187;-69
2023/08/06 15:25:12;;;;;;;3.20;3.10;;;16.20;99.90;19.00;101013.00;;;;5027031;28;20188;-69
2023/08/06 15:28:01;;;;;;;2.77;2.67;;;16.30;99.90;19.10;101042.00;;;;5046987;28;20200;-69
2023/08/06 15:30:52;;;;;;;3.13;3.03;;;16.30;99.90;18.80;101031.00;;;;5063688;28;20186;-70
2023/08/06 15:33:23;;;;;;;3.40;3.30;;;16.30;99.90;19.40;101055.00;;;;5060612;28;20225;-70
2023/08/06 15:35:53;;;;;;;3.27;3.17;;;16.40;99.90;19.40;101050.00;;;;5026450;28;20538;-70
2023/08/06 15:38:26;;;;;;;2.97;2.87;;;16.60;99.90;19.60;101051.00;;;;5035357;28;20653;-71
2023/08/06 15:41:03;;;;;;;3.30;3.20;;;16.80;99.90;19.90;101049.00;;;;5034672;28;20209;-70
2023/08/06 15:43:36;;;;;;;3.17;3.07;;;17.00;99.90;20.00;101038.00;;;;5014752;28;20217;-70
2023/08/06 15:46:05;;;;;;;3.50;3.40;;;17.20;99.90;20.00;101023.00;;;;5043212;28;20179;-69
2023/08/06 15:48:51;;;;;;;3.00;2.90;;;17.30;99.90;19.70;101062.00;;;;5034570;28;20275;-70
2023/08/06 15:51:31;;;;;;;2.50;2.40;;;17.20;99.90;20.00;101082.00;;;;5034257;28;20245;-70
2023/08/06 15:54:21;;;;;;;2.03;2.03;;;17.30;99.90;19.90;101070.00;;;;5034591;28;20682;-70
2023/08/06 15:57:08;;;;;;;2.00;2.00;;;17.40;99.90;20.20;101085.00;;;;5027349;28;20196;-70
2023/08/06 15:59:55;;;;;;;1.97;1.97;;;17.40;99.90;20.30;101075.00;;;;5035261;28;20299;-70
2023/08/06 16:02:39;;;;;;;2.23;2.03;;;17.60;99.90;20.90;101056.00;;;;5020269;28;20202;-70
2023/08/06 16:05:10;;;;;;;1.27;1.27;;;17.90;99.90;20.10;101099.00;;;;5017175;28;20184;-70
2023/08/06 16:07:42;;;;;;;1.27;1.27;;;17.80;99.90;20.40;101113.00;;;;5034291;28;20182;-70
2023/08/06 16:10:30;;;;;;;1.10;1.10;;;17.70;99.90;20.20;101093.00;;;;5040888;28;20202;-70
2023/08/06 16:13:17;;;;;;;1.23;1.23;;;17.70;99.90;20.00;101111.00;;;;5031994;28;20235;-70
2023/08/06 16:15:52;;;;;;;1.57;1.47;;;17.70;99.90;20.60;101118.00;;;;5033891;28;20184;-71
2023/08/06 16:18:41;;;;;;;1.10;1.10;;;17.80;99.90;20.50;101132.00;;;;5034246;28;20208;-70
2023/08/06 16:21:15;;;;;;;17.50;2.77;;;17.80;99.90;20.40;101095.00;;;;5033614;28;20697;-71
2023/08/06 16:24:05;;;;;;;3.40;1.17;;;17.80;99.90;20.70;101138.00;;;;5014443;28;20267;-70
2023/08/06 16:26:55;;;;;;;1.40;1.33;;;17.90;99.90;20.40;101138.00;;;;5029901;28;20258;-70
2023/08/06 16:29:50;;;;;;;0.93;0.80;;;17.70;99.90;20.50;101132.00;;;;5053519;28;20197;-70
2023/08/06 16:32:22;;;;;;;0.80;0.80;;;17.60;99.90;20.20;101137.00;;;;5040857;28;20658;-70
2023/08/06 16:35:09;;;;;;;2.73;1.33;;;17.50;99.90;20.40;101137.00;;;;5017152;28;20203;-70
2023/08/06 16:37:57;;;;;;;0.90;0.90;;;17.60;99.90;21.00;101146.00;;;;5033464;28;20216;-70
2023/08/06 16:40:29;;;;;;;0.87;0.87;;;17.70;99.90;20.90;101147.00;;;;5033683;28;20191;-71
2023/08/06 16:42:55;;;;;;;0.80;0.80;;;17.80;99.90;20.60;101147.00;;;;5016416;28;20559;-70
2023/08/06 16:45:47;;;;;;;8.97;2.60;;;17.80;99.90;20.70;101129.00;;;;5033734;28;20264;-70
2023/08/06 16:48:37;;;;;;;0.50;0.50;;;17.80;99.90;20.70;101174.00;;;;5012368;28;20189;-71
2023/08/06 16:51:10;;;;;;;1.07;1.07;;;17.80;99.90;20.70;101173.00;;;;5028453;28;20244;-71
2023/08/06 16:53:46;;;;;;;0.50;0.50;;;17.80;99.90;20.40;101126.00;;;;5033349;28;20239;-70
2023/08/06 16:56:21;;;;;;;0.77;0.77;;;17.70;99.90;20.60;101177.00;;;;5033535;28;20188;-70
2023/08/06 16:58:56;;;;;;;0.60;0.60;;;17.70;99.90;20.60;101194.00;;;;5033619;28;20248;-70
2023/08/06 17:01:42;;;;;;;0.90;0.90;;;17.80;99.90;20.90;101170.00;;;;5033014;28;20192;-70
2023/08/06 17:04:13;;;;;;;6.27;1.83;;;17.70;99.90;20.50;101178.00;;;;5014390;28;20670;-69
2023/08/06 17:06:42;;;;;;;0.63;0.63;;;17.70;99.90;20.50;101191.00;;;;5032748;28;20674;-70
2023/08/06 17:09:17;;;;;;;0.67;0.67;;;17.70;99.90;20.60;101187.00;;;;5016882;28;20190;-70
2023/08/06 17:11:48;;;;;;;0.60;0.60;;;17.70;99.90;20.40;101170.00;;;;5013629;28;20298;-70
2023/08/06 17:14:20;;;;;;;0.47;0.47;;;17.60;99.90;20.60;101184.00;;;;5033346;28;20189;-70
2023/08/06 17:17:08;;;;;;;1.50;0.77;;;17.50;99.90;20.30;101202.00;;;;5030859;28;20265;-70
2023/08/06 17:19:42;;;;;;;3.40;0.93;;;17.50;99.90;19.50;101200.00;;;;4991517;28;20554;-69
2023/08/06 17:22:23;;;;;;;0.43;0.43;;;17.30;99.90;20.20;101203.00;;;;5027362;28;20667;-70
2023/08/06 17:24:57;;;;;;;0.30;0.30;;;17.30;99.90;20.40;101213.00;;;;5025755;28;20180;-70
2023/08/06 17:27:46;;;;;;;0.40;0.40;;;17.30;99.90;20.60;101213.00;;;;5015489;28;20550;-70
2023/08/06 17:30:20;;;;;;;0.70;0.50;;;17.30;99.90;20.40;101219.00;;;;5033215;28;20180;-69
2023/08/06 17:32:49;;;;;;;0.40;0.40;;;17.30;99.90;20.50;101213.00;;;;5032121;28;20228;-69
2023/08/06 17:35:15;;;;;;;0.63;0.63;;;17.40;99.90;19.80;101229.00;;;;5032644;28;20181;-69
2023/08/06 17:37:45;;;;;;;0.30;0.30;;;17.40;99.90;20.40;101236.00;;;;5032247;28;20188;-70
2023/08/06 17:40:20;;;;;;;3.93;1.23;;;17.40;99.90;20.00;101241.00;;;;5032435;28;20303;-69
2023/08/06 17:42:55;;;;;;;0.30;0.30;;;17.40;99.90;20.10;101201.00;;;;5015432;28;20666;-69
2023/08/06 17:45:41;;;;;;;0.30;0.30;;;17.30;99.90;20.50;101242.00;;;;5033591;28;20551;-70
2023/08/06 17:48:33;;;;;;;0.30;0.30;;;17.40;99.90;20.70;101264.00;;;;5022353;28;20187;-69
2023/08/06 17:51:10;;;;;;;0.30;0.30;;;17.60;99.90;20.30;101253.00;;;;5032171;28;20184;-70
2023/08/06 17:53:41;;;;;;;0.20;0.20;;;17.60;99.90;20.50;101261.00;;;;5032034;28;20212;-68
2023/08/06 17:56:09;;;;;;;1.20;0.83;;;17.50;99.90;20.70;101271.00;;;;5032136;28;20275;-69
2023/08/06 17:58:38;;;;;;;0.30;0.30;;;17.50;99.90;20.40;101239.00;;;;5032438;28;20245;-69
2023/08/06 18:01:05;;;;;;;0.60;0.60;;;17.40;99.90;19.80;101234.00;;;;5031593;28;20547;-69
2023/08/06 18:03:45;;;;;;;0.37;0.37;;;17.30;99.90;20.20;101271.00;;;;5031932;28;20189;-69
2023/08/06 18:06:14;;;;;;;1.30;1.30;;;17.20;99.90;20.20;101273.00;;;;5013076;28;20250;-69
2023/08/06 18:08:50;;;;;;;0.57;0.57;;;17.10;99.90;20.40;101293.00;;;;5032317;28;20183;-69
2023/08/06 18:11:28;;;;;;;0.20;0.20;;;17.20;99.90;20.50;101283.00;;;;5014993;28;20195;-69
2023/08/06 18:13:56;;;;;;;0.40;0.40;;;17.20;99.90;19.70;101281.00;;;;5015443;28;20361;-69
2023/08/06 18:16:25;;;;;;;0.60;0.60;;;17.20;99.90;19.70;101268.00;;;;5015204;28;20187;-69
2023/08/06 18:19:14;;;;;;;0.10;0.10;;;17.00;99.90;20.00;101291.00;;;;5031656;28;20204;-69
2023/08/06 18:22:01;;;;;;;0.50;0.30;;;17.10;99.90;20.10;101295.00;;;;5031955;28;20621;-68
2023/08/06 18:24:49;;;;;;;0.20;0.20;;;17.00;99.90;20.00;101250.00;;;;5032761;28;20183;-69
2023/08/06 18:27:27;;;;;;;0.20;0.20;;;16.90;99.90;20.00;101294.00;;;;5030826;28;20424;-69
2023/08/06 18:29:59;;;;;;;0.10;0.10;;;17.00;99.90;19.60;101291.00;;;;5015296;28;20194;-69
2023/08/06 18:32:46;;;;;;;0.10;0.10;;;16.90;99.90;20.00;101291.00;;;;5015249;28;20219;-69
2023/08/06 18:35:32;;;;;;;1.30;0.80;;;16.90;99.90;20.50;101304.00;;;;5015168;28;20188;-70
2023/08/06 18:38:19;;;;;;;0.63;0.43;;;17.10;99.90;20.40;101301.00;;;;5031780;28;20325;-70
2023/08/06 18:40:47;;;;;;;0.20;0.20;;;17.20;99.90;20.50;101281.00;;;;5064059;28;20686;-69
2023/08/06 18:43:35;;;;;;;0.50;0.50;;;17.20;99.90;19.10;101272.00;;;;5031680;28;20198;-69
2023/08/06 18:46:01;;;;;;;0.20;0.20;;;16.80;99.90;19.80;101295.00;;;;5017541;28;20206;-69